sensor_id;sensor_type;location;lat;lon;timestamp;temperature;humidity
74384;DHT22;62824;52.994;-3.936;2023-07-20T00:02:11;15.90;93.80
74384;DHT22;62824;52.994;-3.936;2023-07-20T00:04:37;15.90;93.60
74384;DHT22;62824;52.994;-3.936;2023-07-20T00:07:03;15.90;94.20
74384;DHT22;62824;52.994;-3.936;2023-07-20T00:09:29;16.00;93.70
74384;DHT22;62824;52.994;-3.936;2023-07-20T00:11:55;16.00;92.70
74384;DHT22;62824;52.994;-3.936;2023-07-20T00:14:21;16.00;92.60
74384;DHT22;62824;52.994;-3.936;2023-07-20T00:16:49;16.00;92.90
74384;DHT22;62824;52.994;-3.936;2023-07-20T00:19:21;15.90;92.90
74384;DHT22;62824;52.994;-3.936;2023-07-20T00:25:29;15.90;93.00
74384;DHT22;62824;52.994;-3.936;2023-07-20T00:27:55;15.60;96.10
74384;DHT22;62824;52.994;-3.936;2023-07-20T00:30:20;15.40;99.60
74384;DHT22;62824;52.994;-3.936;2023-07-20T00:32:46;15.60;99.90
74384;DHT22;62824;52.994;-3.936;2023-07-20T00:35:12;15.70;99.90
74384;DHT22;62824;52.994;-3.936;2023-07-20T00:37:39;15.70;99.90
74384;DHT22;62824;52.994;-3.936;2023-07-20T00:40:05;15.80;99.90
74384;DHT22;62824;52.994;-3.936;2023-07-20T00:42:32;15.70;99.90
74384;DHT22;62824;52.994;-3.936;2023-07-20T00:44:58;15.60;99.90
74384;DHT22;62824;52.994;-3.936;2023-07-20T00:47:24;15.50;99.90
74384;DHT22;62824;52.994;-3.936;2023-07-20T00:49:51;15.20;99.90
74384;DHT22;62824;52.994;-3.936;2023-07-20T00:52:19;15.00;99.90
74384;DHT22;62824;52.994;-3.936;2023-07-20T00:54:47;15.10;99.90
74384;DHT22;62824;52.994;-3.936;2023-07-20T00:57:15;15.00;99.90
74384;DHT22;62824;52.994;-3.936;2023-07-20T00:59:41;15.10;99.90
74384;DHT22;62824;52.994;-3.936;2023-07-20T01:02:07;15.20;99.90
74384;DHT22;62824;52.994;-3.936;2023-07-20T01:04:34;15.40;99.90
74384;DHT22;62824;52.994;-3.936;2023-07-20T01:07:06;15.20;99.90
74384;DHT22;62824;52.994;-3.936;2023-07-20T01:09:47;15.10;99.90
74384;DHT22;62824;52.994;-3.936;2023-07-20T01:12:20;15.10;99.90
74384;DHT22;62824;52.994;-3.936;2023-07-20T01:14:49;15.20;99.90
74384;DHT22;62824;52.994;-3.936;2023-07-20T01:17:15;15.20;99.90
74384;DHT22;62824;52.994;-3.936;2023-07-20T01:19:41;15.10;99.90
74384;DHT22;62824;52.994;-3.936;2023-07-20T01:25:11;15.20;99.90
74384;DHT22;62824;52.994;-3.936;2023-07-20T01:28:09;15.30;99.90
74384;DHT22;62824;52.994;-3.936;2023-07-20T01:33:21;15.50;99.90
74384;DHT22;62824;52.994;-3.936;2023-07-20T01:35:54;15.30;99.90
74384;DHT22;62824;52.994;-3.936;2023-07-20T01:38:20;15.30;99.90
74384;DHT22;62824;52.994;-3.936;2023-07-20T01:40:47;15.30;99.90
74384;DHT22;62824;52.994;-3.936;2023-07-20T01:43:13;15.30;99.90
74384;DHT22;62824;52.994;-3.936;2023-07-20T01:45:39;15.20;99.90
74384;DHT22;62824;52.994;-3.936;2023-07-20T01:48:05;15.20;99.90
74384;DHT22;62824;52.994;-3.936;2023-07-20T01:50:31;15.10;99.90
74384;DHT22;62824;52.994;-3.936;2023-07-20T01:52:57;15.20;99.90
74384;DHT22;62824;52.994;-3.936;2023-07-20T01:55:23;15.20;99.90
74384;DHT22;62824;52.994;-3.936;2023-07-20T01:57:48;15.00;99.90
74384;DHT22;62824;52.994;-3.936;2023-07-20T02:00:14;14.80;99.90
74384;DHT22;62824;52.994;-3.936;2023-07-20T02:02:41;14.70;99.90
74384;DHT22;62824;52.994;-3.936;2023-07-20T02:05:08;14.70;99.90
74384;DHT22;62824;52.994;-3.936;2023-07-20T02:07:33;14.90;99.90
74384;DHT22;62824;52.994;-3.936;2023-07-20T02:09:59;14.90;99.90
74384;DHT22;62824;52.994;-3.936;2023-07-20T02:12:25;14.90;99.90
74384;DHT22;62824;52.994;-3.936;2023-07-20T02:14:50;15.10;99.90
74384;DHT22;62824;52.994;-3.936;2023-07-20T02:17:16;15.20;99.90
74384;DHT22;62824;52.994;-3.936;2023-07-20T02:19:42;15.10;99.90
74384;DHT22;62824;52.994;-3.936;2023-07-20T02:22:08;15.10;99.90
74384;DHT22;62824;52.994;-3.936;2023-07-20T02:24:34;14.90;99.90
74384;DHT22;62824;52.994;-3.936;2023-07-20T02:27:00;14.90;99.90
74384;DHT22;62824;52.994;-3.936;2023-07-20T02:29:25;14.70;99.90
74384;DHT22;62824;52.994;-3.936;2023-07-20T02:31:51;14.60;99.90
74384;DHT22;62824;52.994;-3.936;2023-07-20T02:34:17;14.60;99.90
74384;DHT22;62824;52.994;-3.936;2023-07-20T02:36:43;14.70;99.90
74384;DHT22;62824;52.994;-3.936;2023-07-20T02:39:09;14.90;99.90
74384;DHT22;62824;52.994;-3.936;2023-07-20T02:41:35;15.00;99.90
74384;DHT22;62824;52.994;-3.936;2023-07-20T02:44:01;15.00;99.90
74384;DHT22;62824;52.994;-3.936;2023-07-20T02:46:29;15.10;99.90
74384;DHT22;62824;52.994;-3.936;2023-07-20T02:48:58;15.10;99.90
74384;DHT22;62824;52.994;-3.936;2023-07-20T02:51:23;15.10;99.90
74384;DHT22;62824;52.994;-3.936;2023-07-20T02:53:49;15.00;99.90
74384;DHT22;62824;52.994;-3.936;2023-07-20T02:56:15;15.00;99.90
74384;DHT22;62824;52.994;-3.936;2023-07-20T02:58:42;15.10;99.90
74384;DHT22;62824;52.994;-3.936;2023-07-20T03:01:11;15.10;99.90
74384;DHT22;62824;52.994;-3.936;2023-07-20T03:03:37;15.10;99.90
74384;DHT22;62824;52.994;-3.936;2023-07-20T03:06:06;15.00;99.90
74384;DHT22;62824;52.994;-3.936;2023-07-20T03:08:34;15.00;99.90
74384;DHT22;62824;52.994;-3.936;2023-07-20T03:11:01;14.90;99.90
74384;DHT22;62824;52.994;-3.936;2023-07-20T03:13:27;14.70;99.90
74384;DHT22;62824;52.994;-3.936;2023-07-20T03:15:53;14.80;99.90
74384;DHT22;62824;52.994;-3.936;2023-07-20T03:18:19;14.90;99.90
74384;DHT22;62824;52.994;-3.936;2023-07-20T03:20:45;14.90;99.90
74384;DHT22;62824;52.994;-3.936;2023-07-20T03:23:11;14.80;99.90
74384;DHT22;62824;52.994;-3.936;2023-07-20T03:25:37;14.70;99.90
74384;DHT22;62824;52.994;-3.936;2023-07-20T03:28:04;14.70;99.90
74384;DHT22;62824;52.994;-3.936;2023-07-20T03:30:30;14.60;99.90
74384;DHT22;62824;52.994;-3.936;2023-07-20T03:32:56;14.40;99.90
74384;DHT22;62824;52.994;-3.936;2023-07-20T03:35:21;14.30;99.90
74384;DHT22;62824;52.994;-3.936;2023-07-20T03:37:47;14.40;99.90
74384;DHT22;62824;52.994;-3.936;2023-07-20T03:40:13;14.30;99.90
74384;DHT22;62824;52.994;-3.936;2023-07-20T03:42:40;14.30;99.90
74384;DHT22;62824;52.994;-3.936;2023-07-20T03:45:07;14.40;99.90
74384;DHT22;62824;52.994;-3.936;2023-07-20T03:47:33;14.50;99.90
74384;DHT22;62824;52.994;-3.936;2023-07-20T03:49:59;14.60;99.90
74384;DHT22;62824;52.994;-3.936;2023-07-20T03:52:25;14.70;99.90
74384;DHT22;62824;52.994;-3.936;2023-07-20T03:54:50;14.70;99.90
74384;DHT22;62824;52.994;-3.936;2023-07-20T03:57:19;14.80;99.90
74384;DHT22;62824;52.994;-3.936;2023-07-20T03:59:45;14.80;99.90
74384;DHT22;62824;52.994;-3.936;2023-07-20T04:02:14;14.70;99.90
74384;DHT22;62824;52.994;-3.936;2023-07-20T04:04:40;14.60;99.90
74384;DHT22;62824;52.994;-3.936;2023-07-20T04:07:06;14.40;99.90
74384;DHT22;62824;52.994;-3.936;2023-07-20T04:09:32;14.40;99.90
74384;DHT22;62824;52.994;-3.936;2023-07-20T04:11:58;14.30;99.90
74384;DHT22;62824;52.994;-3.936;2023-07-20T04:14:25;14.30;99.90
74384;DHT22;62824;52.994;-3.936;2023-07-20T04:16:51;14.30;99.90
74384;DHT22;62824;52.994;-3.936;2023-07-20T04:19:17;14.30;99.90
74384;DHT22;62824;52.994;-3.936;2023-07-20T04:21:43;14.30;99.90
74384;DHT22;62824;52.994;-3.936;2023-07-20T04:24:09;14.30;99.90
74384;DHT22;62824;52.994;-3.936;2023-07-20T04:26:35;14.30;99.90
74384;DHT22;62824;52.994;-3.936;2023-07-20T04:29:01;14.20;99.90
74384;DHT22;62824;52.994;-3.936;2023-07-20T04:31:26;14.20;99.90
74384;DHT22;62824;52.994;-3.936;2023-07-20T04:33:52;14.10;99.90
74384;DHT22;62824;52.994;-3.936;2023-07-20T04:36:18;14.20;99.90
74384;DHT22;62824;52.994;-3.936;2023-07-20T04:38:47;14.30;99.90
74384;DHT22;62824;52.994;-3.936;2023-07-20T04:41:13;14.40;99.90
74384;DHT22;62824;52.994;-3.936;2023-07-20T04:43:43;14.40;99.90
74384;DHT22;62824;52.994;-3.936;2023-07-20T04:46:10;14.40;99.90
74384;DHT22;62824;52.994;-3.936;2023-07-20T04:48:36;14.40;99.90
74384;DHT22;62824;52.994;-3.936;2023-07-20T04:51:02;14.40;99.90
74384;DHT22;62824;52.994;-3.936;2023-07-20T04:53:28;14.40;99.90
74384;DHT22;62824;52.994;-3.936;2023-07-20T04:55:54;14.30;99.90
74384;DHT22;62824;52.994;-3.936;2023-07-20T04:58:21;14.40;99.90
74384;DHT22;62824;52.994;-3.936;2023-07-20T05:00:50;14.30;99.90
74384;DHT22;62824;52.994;-3.936;2023-07-20T05:03:17;14.40;99.90
74384;DHT22;62824;52.994;-3.936;2023-07-20T05:05:43;14.40;99.90
74384;DHT22;62824;52.994;-3.936;2023-07-20T05:08:08;14.50;99.90
74384;DHT22;62824;52.994;-3.936;2023-07-20T05:14:10;14.60;99.90
74384;DHT22;62824;52.994;-3.936;2023-07-20T05:16:36;14.70;99.90
74384;DHT22;62824;52.994;-3.936;2023-07-20T05:19:02;14.60;99.90
74384;DHT22;62824;52.994;-3.936;2023-07-20T05:21:28;14.60;99.90
74384;DHT22;62824;52.994;-3.936;2023-07-20T05:23:54;14.60;99.90
74384;DHT22;62824;52.994;-3.936;2023-07-20T05:26:20;14.50;99.90
74384;DHT22;62824;52.994;-3.936;2023-07-20T05:28:45;14.50;99.90
74384;DHT22;62824;52.994;-3.936;2023-07-20T05:31:11;14.60;99.90
74384;DHT22;62824;52.994;-3.936;2023-07-20T05:33:37;14.60;99.90
74384;DHT22;62824;52.994;-3.936;2023-07-20T05:36:03;14.60;99.90
74384;DHT22;62824;52.994;-3.936;2023-07-20T05:38:29;14.60;99.90
74384;DHT22;62824;52.994;-3.936;2023-07-20T05:40:59;14.70;99.90
74384;DHT22;62824;52.994;-3.936;2023-07-20T05:43:27;14.80;99.90
74384;DHT22;62824;52.994;-3.936;2023-07-20T05:45:53;14.70;99.90
74384;DHT22;62824;52.994;-3.936;2023-07-20T05:48:19;14.70;99.90
74384;DHT22;62824;52.994;-3.936;2023-07-20T05:50:44;14.60;99.90
74384;DHT22;62824;52.994;-3.936;2023-07-20T05:53:10;14.50;99.90
74384;DHT22;62824;52.994;-3.936;2023-07-20T05:55:36;14.60;99.90
74384;DHT22;62824;52.994;-3.936;2023-07-20T05:58:02;14.70;99.90
74384;DHT22;62824;52.994;-3.936;2023-07-20T06:00:29;14.70;99.90
74384;DHT22;62824;52.994;-3.936;2023-07-20T06:02:55;14.70;99.90
74384;DHT22;62824;52.994;-3.936;2023-07-20T06:05:24;14.70;99.90
74384;DHT22;62824;52.994;-3.936;2023-07-20T06:07:50;14.70;99.90
74384;DHT22;62824;52.994;-3.936;2023-07-20T06:10:16;14.70;99.90
74384;DHT22;62824;52.994;-3.936;2023-07-20T06:12:42;14.60;99.90
74384;DHT22;62824;52.994;-3.936;2023-07-20T06:15:25;14.60;99.90
74384;DHT22;62824;52.994;-3.936;2023-07-20T06:17:51;14.70;99.90
74384;DHT22;62824;52.994;-3.936;2023-07-20T06:20:17;14.70;99.90
74384;DHT22;62824;52.994;-3.936;2023-07-20T06:22:43;14.70;99.90
74384;DHT22;62824;52.994;-3.936;2023-07-20T06:25:10;14.70;99.90
74384;DHT22;62824;52.994;-3.936;2023-07-20T06:27:36;14.80;99.90
74384;DHT22;62824;52.994;-3.936;2023-07-20T06:30:02;14.70;99.90
74384;DHT22;62824;52.994;-3.936;2023-07-20T06:32:27;14.80;99.90
74384;DHT22;62824;52.994;-3.936;2023-07-20T06:34:53;14.90;99.90
74384;DHT22;62824;52.994;-3.936;2023-07-20T06:37:19;15.10;99.90
74384;DHT22;62824;52.994;-3.936;2023-07-20T06:39:45;15.20;99.90
74384;DHT22;62824;52.994;-3.936;2023-07-20T06:42:11;15.10;99.90
74384;DHT22;62824;52.994;-3.936;2023-07-20T06:44:37;15.10;99.90
74384;DHT22;62824;52.994;-3.936;2023-07-20T06:47:03;15.20;99.90
74384;DHT22;62824;52.994;-3.936;2023-07-20T06:49:29;15.30;99.90
74384;DHT22;62824;52.994;-3.936;2023-07-20T06:51:56;15.30;99.90
74384;DHT22;62824;52.994;-3.936;2023-07-20T06:54:22;15.30;99.90
74384;DHT22;62824;52.994;-3.936;2023-07-20T06:56:48;15.30;99.90
74384;DHT22;62824;52.994;-3.936;2023-07-20T06:59:14;15.30;99.90
74384;DHT22;62824;52.994;-3.936;2023-07-20T07:01:40;15.20;99.90
74384;DHT22;62824;52.994;-3.936;2023-07-20T07:04:05;15.30;99.90
74384;DHT22;62824;52.994;-3.936;2023-07-20T07:06:32;15.30;99.90
74384;DHT22;62824;52.994;-3.936;2023-07-20T07:08:58;15.40;99.90
74384;DHT22;62824;52.994;-3.936;2023-07-20T07:11:24;15.40;99.90
74384;DHT22;62824;52.994;-3.936;2023-07-20T07:13:50;15.50;99.90
74384;DHT22;62824;52.994;-3.936;2023-07-20T07:16:17;15.50;99.90
74384;DHT22;62824;52.994;-3.936;2023-07-20T07:18:49;15.50;99.90
74384;DHT22;62824;52.994;-3.936;2023-07-20T07:21:15;15.60;99.90
74384;DHT22;62824;52.994;-3.936;2023-07-20T07:23:41;15.70;99.90
74384;DHT22;62824;52.994;-3.936;2023-07-20T07:26:07;15.80;99.90
74384;DHT22;62824;52.994;-3.936;2023-07-20T07:28:33;15.80;99.90
74384;DHT22;62824;52.994;-3.936;2023-07-20T07:30:59;15.90;99.90
74384;DHT22;62824;52.994;-3.936;2023-07-20T07:33:25;16.00;99.90
74384;DHT22;62824;52.994;-3.936;2023-07-20T07:35:51;16.10;99.90
74384;DHT22;62824;52.994;-3.936;2023-07-20T07:38:21;16.20;99.90
74384;DHT22;62824;52.994;-3.936;2023-07-20T07:40:46;16.20;99.90
74384;DHT22;62824;52.994;-3.936;2023-07-20T07:43:12;16.20;99.90
74384;DHT22;62824;52.994;-3.936;2023-07-20T07:45:41;16.20;99.90
74384;DHT22;62824;52.994;-3.936;2023-07-20T07:48:07;16.10;99.90
74384;DHT22;62824;52.994;-3.936;2023-07-20T07:50:34;16.00;99.90
74384;DHT22;62824;52.994;-3.936;2023-07-20T07:53:00;16.10;99.90
74384;DHT22;62824;52.994;-3.936;2023-07-20T07:55:26;16.20;99.90
74384;DHT22;62824;52.994;-3.936;2023-07-20T07:57:52;16.40;99.90
74384;DHT22;62824;52.994;-3.936;2023-07-20T08:00:18;16.70;99.90
74384;DHT22;62824;52.994;-3.936;2023-07-20T08:02:45;16.80;99.90
74384;DHT22;62824;52.994;-3.936;2023-07-20T08:05:12;16.70;99.90
74384;DHT22;62824;52.994;-3.936;2023-07-20T08:07:38;16.90;99.90
74384;DHT22;62824;52.994;-3.936;2023-07-20T08:10:04;17.00;97.60
74384;DHT22;62824;52.994;-3.936;2023-07-20T08:12:30;16.90;91.70
74384;DHT22;62824;52.994;-3.936;2023-07-20T08:14:56;16.80;94.80
74384;DHT22;62824;52.994;-3.936;2023-07-20T08:17:22;16.90;91.90
74384;DHT22;62824;52.994;-3.936;2023-07-20T08:19:48;17.00;86.80
74384;DHT22;62824;52.994;-3.936;2023-07-20T08:22:14;17.10;74.20
74384;DHT22;62824;52.994;-3.936;2023-07-20T08:24:40;17.10;68.30
74384;DHT22;62824;52.994;-3.936;2023-07-20T08:27:07;17.30;76.60
74384;DHT22;62824;52.994;-3.936;2023-07-20T08:29:34;17.20;70.10
74384;DHT22;62824;52.994;-3.936;2023-07-20T08:32:00;17.10;66.30
74384;DHT22;62824;52.994;-3.936;2023-07-20T08:34:31;16.90;73.10
74384;DHT22;62824;52.994;-3.936;2023-07-20T08:36:58;16.90;71.80
74384;DHT22;62824;52.994;-3.936;2023-07-20T08:39:24;16.90;87.20
74384;DHT22;62824;52.994;-3.936;2023-07-20T08:41:50;16.90;87.40
74384;DHT22;62824;52.994;-3.936;2023-07-20T08:44:17;16.90;85.50
74384;DHT22;62824;52.994;-3.936;2023-07-20T08:46:44;17.10;89.00
74384;DHT22;62824;52.994;-3.936;2023-07-20T08:49:11;17.00;86.10
74384;DHT22;62824;52.994;-3.936;2023-07-20T08:51:38;17.00;85.60
74384;DHT22;62824;52.994;-3.936;2023-07-20T08:54:04;17.00;84.30
74384;DHT22;62824;52.994;-3.936;2023-07-20T08:56:33;17.10;81.00
74384;DHT22;62824;52.994;-3.936;2023-07-20T08:58:59;17.30;76.80
74384;DHT22;62824;52.994;-3.936;2023-07-20T09:01:27;17.50;57.90
74384;DHT22;62824;52.994;-3.936;2023-07-20T09:03:53;17.60;40.90
74384;DHT22;62824;52.994;-3.936;2023-07-20T09:06:19;17.60;32.30
74384;DHT22;62824;52.994;-3.936;2023-07-20T09:08:45;17.60;29.50
74384;DHT22;62824;52.994;-3.936;2023-07-20T09:11:11;17.50;24.50
74384;DHT22;62824;52.994;-3.936;2023-07-20T09:13:38;17.60;22.70
74384;DHT22;62824;52.994;-3.936;2023-07-20T09:16:03;17.60;21.30
74384;DHT22;62824;52.994;-3.936;2023-07-20T09:18:32;17.60;17.90
74384;DHT22;62824;52.994;-3.936;2023-07-20T09:21:05;17.70;16.60
74384;DHT22;62824;52.994;-3.936;2023-07-20T09:23:38;17.70;14.00
74384;DHT22;62824;52.994;-3.936;2023-07-20T09:26:13;18.00;14.80
74384;DHT22;62824;52.994;-3.936;2023-07-20T09:28:54;18.60;12.70
74384;DHT22;62824;52.994;-3.936;2023-07-20T09:31:22;18.60;10.00
74384;DHT22;62824;52.994;-3.936;2023-07-20T09:33:49;18.90;9.70
74384;DHT22;62824;52.994;-3.936;2023-07-20T09:36:15;18.90;9.90
74384;DHT22;62824;52.994;-3.936;2023-07-20T09:38:41;19.30;10.60
74384;DHT22;62824;52.994;-3.936;2023-07-20T09:41:12;19.60;8.50
74384;DHT22;62824;52.994;-3.936;2023-07-20T09:43:38;19.60;7.00
74384;DHT22;62824;52.994;-3.936;2023-07-20T09:46:05;19.70;7.00
74384;DHT22;62824;52.994;-3.936;2023-07-20T09:48:30;19.80;6.60
74384;DHT22;62824;52.994;-3.936;2023-07-20T09:50:56;20.00;7.60
74384;DHT22;62824;52.994;-3.936;2023-07-20T09:53:24;20.20;6.60
74384;DHT22;62824;52.994;-3.936;2023-07-20T09:55:54;19.90;6.60
74384;DHT22;62824;52.994;-3.936;2023-07-20T09:58:21;20.00;6.60
74384;DHT22;62824;52.994;-3.936;2023-07-20T10:00:48;20.10;6.40
74384;DHT22;62824;52.994;-3.936;2023-07-20T10:03:21;19.80;6.50
74384;DHT22;62824;52.994;-3.936;2023-07-20T10:06:00;19.80;6.50
74384;DHT22;62824;52.994;-3.936;2023-07-20T10:08:33;20.10;6.60
74384;DHT22;62824;52.994;-3.936;2023-07-20T10:11:02;20.20;4.40
74384;DHT22;62824;52.994;-3.936;2023-07-20T10:13:29;20.20;5.20
74384;DHT22;62824;52.994;-3.936;2023-07-20T10:16:10;19.90;6.20
74384;DHT22;62824;52.994;-3.936;2023-07-20T10:21:29;20.00;5.40
74384;DHT22;62824;52.994;-3.936;2023-07-20T10:23:59;19.90;4.30
74384;DHT22;62824;52.994;-3.936;2023-07-20T10:26:28;19.90;5.20
74384;DHT22;62824;52.994;-3.936;2023-07-20T10:28:55;19.90;5.90
74384;DHT22;62824;52.994;-3.936;2023-07-20T10:31:22;20.40;3.80
74384;DHT22;62824;52.994;-3.936;2023-07-20T10:33:48;20.50;3.10
74384;DHT22;62824;52.994;-3.936;2023-07-20T10:36:16;20.40;3.00
74384;DHT22;62824;52.994;-3.936;2023-07-20T10:38:56;20.30;3.80
74384;DHT22;62824;52.994;-3.936;2023-07-20T10:41:34;20.30;3.90
74384;DHT22;62824;52.994;-3.936;2023-07-20T10:44:07;20.40;3.40
74384;DHT22;62824;52.994;-3.936;2023-07-20T10:46:42;20.10;4.10
74384;DHT22;62824;52.994;-3.936;2023-07-20T10:49:13;19.90;4.20
74384;DHT22;62824;52.994;-3.936;2023-07-20T10:51:45;20.20;4.30
74384;DHT22;62824;52.994;-3.936;2023-07-20T10:56:42;20.40;2.90
74384;DHT22;62824;52.994;-3.936;2023-07-20T10:59:39;20.10;3.50
74384;DHT22;62824;52.994;-3.936;2023-07-20T11:02:08;20.10;3.20
74384;DHT22;62824;52.994;-3.936;2023-07-20T11:07:03;20.40;3.50
74384;DHT22;62824;52.994;-3.936;2023-07-20T11:09:34;20.40;3.20
74384;DHT22;62824;52.994;-3.936;2023-07-20T11:12:26;20.70;2.90
74384;DHT22;62824;52.994;-3.936;2023-07-20T11:14:56;20.60;3.20
74384;DHT22;62824;52.994;-3.936;2023-07-20T11:17:30;20.70;2.70
74384;DHT22;62824;52.994;-3.936;2023-07-20T11:19:57;20.80;1.10
74384;DHT22;62824;52.994;-3.936;2023-07-20T11:22:24;20.90;1.10
74384;DHT22;62824;52.994;-3.936;2023-07-20T11:24:49;20.80;1.20
74384;DHT22;62824;52.994;-3.936;2023-07-20T11:27:16;20.70;2.90
74384;DHT22;62824;52.994;-3.936;2023-07-20T11:29:45;20.70;3.10
74384;DHT22;62824;52.994;-3.936;2023-07-20T11:32:11;20.90;3.20
74384;DHT22;62824;52.994;-3.936;2023-07-20T11:34:37;20.70;2.50
74384;DHT22;62824;52.994;-3.936;2023-07-20T11:37:03;20.70;2.40
74384;DHT22;62824;52.994;-3.936;2023-07-20T11:39:29;20.70;3.40
74384;DHT22;62824;52.994;-3.936;2023-07-20T11:41:56;21.20;1.80
74384;DHT22;62824;52.994;-3.936;2023-07-20T11:44:24;21.00;1.00
74384;DHT22;62824;52.994;-3.936;2023-07-20T11:47:19;20.90;1.70
74384;DHT22;62824;52.994;-3.936;2023-07-20T11:49:45;21.20;1.90
74384;DHT22;62824;52.994;-3.936;2023-07-20T11:52:16;21.00;1.70
74384;DHT22;62824;52.994;-3.936;2023-07-20T11:54:43;20.80;2.30
74384;DHT22;62824;52.994;-3.936;2023-07-20T11:57:19;20.40;2.90
74384;DHT22;62824;52.994;-3.936;2023-07-20T11:59:58;20.20;3.50
74384;DHT22;62824;52.994;-3.936;2023-07-20T12:02:29;20.00;5.70
74384;DHT22;62824;52.994;-3.936;2023-07-20T12:04:56;20.00;5.70
74384;DHT22;62824;52.994;-3.936;2023-07-20T12:07:22;19.80;5.00
74384;DHT22;62824;52.994;-3.936;2023-07-20T12:10:07;19.80;5.50
74384;DHT22;62824;52.994;-3.936;2023-07-20T12:12:37;20.00;5.40
74384;DHT22;62824;52.994;-3.936;2023-07-20T12:17:45;20.40;5.50
74384;DHT22;62824;52.994;-3.936;2023-07-20T12:20:12;20.30;5.00
74384;DHT22;62824;52.994;-3.936;2023-07-20T12:22:43;20.20;5.30
74384;DHT22;62824;52.994;-3.936;2023-07-20T12:25:09;20.50;4.90
74384;DHT22;62824;52.994;-3.936;2023-07-20T12:27:36;20.40;4.60
74384;DHT22;62824;52.994;-3.936;2023-07-20T12:30:08;20.70;5.00
74384;DHT22;62824;52.994;-3.936;2023-07-20T12:32:33;20.40;6.10
74384;DHT22;62824;52.994;-3.936;2023-07-20T12:34:59;20.20;6.50
74384;DHT22;62824;52.994;-3.936;2023-07-20T12:37:26;20.10;6.70
74384;DHT22;62824;52.994;-3.936;2023-07-20T12:39:52;20.40;6.10
74384;DHT22;62824;52.994;-3.936;2023-07-20T12:42:18;21.00;5.80
74384;DHT22;62824;52.994;-3.936;2023-07-20T12:44:44;21.60;4.30
74384;DHT22;62824;52.994;-3.936;2023-07-20T12:47:10;21.80;5.00
74384;DHT22;62824;52.994;-3.936;2023-07-20T12:49:35;21.20;5.90
74384;DHT22;62824;52.994;-3.936;2023-07-20T12:52:01;20.80;6.50
74384;DHT22;62824;52.994;-3.936;2023-07-20T12:54:27;20.60;6.90
74384;DHT22;62824;52.994;-3.936;2023-07-20T12:56:53;20.70;6.10
74384;DHT22;62824;52.994;-3.936;2023-07-20T12:59:19;21.30;5.90
74384;DHT22;62824;52.994;-3.936;2023-07-20T13:01:45;21.70;4.10
74384;DHT22;62824;52.994;-3.936;2023-07-20T13:04:11;21.80;4.00
74384;DHT22;62824;52.994;-3.936;2023-07-20T13:06:37;21.90;2.60
74384;DHT22;62824;52.994;-3.936;2023-07-20T13:09:05;22.40;2.60
74384;DHT22;62824;52.994;-3.936;2023-07-20T13:11:34;22.50;1.00
74384;DHT22;62824;52.994;-3.936;2023-07-20T13:14:00;22.60;1.00
74384;DHT22;62824;52.994;-3.936;2023-07-20T13:16:26;22.00;1.00
74384;DHT22;62824;52.994;-3.936;2023-07-20T13:18:51;21.50;2.30
74384;DHT22;62824;52.994;-3.936;2023-07-20T13:21:18;21.50;2.70
74384;DHT22;62824;52.994;-3.936;2023-07-20T13:23:50;21.00;3.70
74384;DHT22;62824;52.994;-3.936;2023-07-20T13:26:16;20.70;3.70
74384;DHT22;62824;52.994;-3.936;2023-07-20T13:28:42;20.50;4.10
74384;DHT22;62824;52.994;-3.936;2023-07-20T13:31:08;20.70;3.10
74384;DHT22;62824;52.994;-3.936;2023-07-20T13:33:36;20.90;2.70
74384;DHT22;62824;52.994;-3.936;2023-07-20T13:36:02;21.40;2.10
74384;DHT22;62824;52.994;-3.936;2023-07-20T13:38:28;21.90;2.60
74384;DHT22;62824;52.994;-3.936;2023-07-20T13:40:53;22.00;2.20
74384;DHT22;62824;52.994;-3.936;2023-07-20T13:43:22;22.30;2.20
74384;DHT22;62824;52.994;-3.936;2023-07-20T13:45:48;22.70;1.50
74384;DHT22;62824;52.994;-3.936;2023-07-20T13:48:14;22.70;1.00
74384;DHT22;62824;52.994;-3.936;2023-07-20T13:50:40;22.60;1.00
74384;DHT22;62824;52.994;-3.936;2023-07-20T13:53:06;22.90;1.00
74384;DHT22;62824;52.994;-3.936;2023-07-20T13:55:32;22.70;1.00
74384;DHT22;62824;52.994;-3.936;2023-07-20T13:57:59;22.20;1.00
74384;DHT22;62824;52.994;-3.936;2023-07-20T14:00:25;22.10;1.60
74384;DHT22;62824;52.994;-3.936;2023-07-20T14:02:56;22.20;2.50
74384;DHT22;62824;52.994;-3.936;2023-07-20T14:05:24;22.50;1.00
74384;DHT22;62824;52.994;-3.936;2023-07-20T14:07:51;23.10;1.00
74384;DHT22;62824;52.994;-3.936;2023-07-20T14:10:17;23.20;1.00
74384;DHT22;62824;52.994;-3.936;2023-07-20T14:12:43;23.30;1.00
74384;DHT22;62824;52.994;-3.936;2023-07-20T14:15:10;23.20;1.00
74384;DHT22;62824;52.994;-3.936;2023-07-20T14:17:36;23.00;1.00
74384;DHT22;62824;52.994;-3.936;2023-07-20T14:20:03;23.00;1.00
74384;DHT22;62824;52.994;-3.936;2023-07-20T14:22:33;22.70;1.00
74384;DHT22;62824;52.994;-3.936;2023-07-20T14:25:00;22.50;1.00
74384;DHT22;62824;52.994;-3.936;2023-07-20T14:27:25;22.40;1.00
74384;DHT22;62824;52.994;-3.936;2023-07-20T14:29:54;22.40;1.00
74384;DHT22;62824;52.994;-3.936;2023-07-20T14:32:21;22.40;1.00
74384;DHT22;62824;52.994;-3.936;2023-07-20T14:34:47;22.20;1.00
74384;DHT22;62824;52.994;-3.936;2023-07-20T14:37:13;22.20;1.00
74384;DHT22;62824;52.994;-3.936;2023-07-20T14:39:38;22.40;1.00
74384;DHT22;62824;52.994;-3.936;2023-07-20T14:42:04;22.60;1.00
74384;DHT22;62824;52.994;-3.936;2023-07-20T14:44:39;22.70;1.00
74384;DHT22;62824;52.994;-3.936;2023-07-20T14:47:05;22.30;2.10
74384;DHT22;62824;52.994;-3.936;2023-07-20T14:49:31;22.20;2.80
74384;DHT22;62824;52.994;-3.936;2023-07-20T14:51:57;21.90;2.60
74384;DHT22;62824;52.994;-3.936;2023-07-20T14:54:23;22.40;2.50
74384;DHT22;62824;52.994;-3.936;2023-07-20T14:56:50;22.70;2.10
74384;DHT22;62824;52.994;-3.936;2023-07-20T14:59:18;22.70;1.20
74384;DHT22;62824;52.994;-3.936;2023-07-20T15:01:44;22.50;2.10
74384;DHT22;62824;52.994;-3.936;2023-07-20T15:04:14;22.20;2.20
74384;DHT22;62824;52.994;-3.936;2023-07-20T15:06:41;22.00;2.10
74384;DHT22;62824;52.994;-3.936;2023-07-20T15:09:15;21.80;3.10
74384;DHT22;62824;52.994;-3.936;2023-07-20T15:11:41;22.10;3.30
74384;DHT22;62824;52.994;-3.936;2023-07-20T15:14:09;21.70;3.00
74384;DHT22;62824;52.994;-3.936;2023-07-20T15:16:37;21.80;2.30
74384;DHT22;62824;52.994;-3.936;2023-07-20T15:19:03;21.70;4.10
74384;DHT22;62824;52.994;-3.936;2023-07-20T15:21:29;21.30;5.10
74384;DHT22;62824;52.994;-3.936;2023-07-20T15:23:57;21.20;5.20
74384;DHT22;62824;52.994;-3.936;2023-07-20T15:26:24;21.00;5.80
74384;DHT22;62824;52.994;-3.936;2023-07-20T15:28:51;20.90;5.70
74384;DHT22;62824;52.994;-3.936;2023-07-20T15:31:16;21.00;5.50
74384;DHT22;62824;52.994;-3.936;2023-07-20T15:33:43;21.30;5.50
74384;DHT22;62824;52.994;-3.936;2023-07-20T15:36:11;21.60;3.00
74384;DHT22;62824;52.994;-3.936;2023-07-20T15:38:37;21.80;1.70
74384;DHT22;62824;52.994;-3.936;2023-07-20T15:41:03;21.70;3.40
74384;DHT22;62824;52.994;-3.936;2023-07-20T15:43:30;21.90;2.20
74384;DHT22;62824;52.994;-3.936;2023-07-20T15:49:32;21.90;1.70
74384;DHT22;62824;52.994;-3.936;2023-07-20T15:51:59;22.20;1.00